createdAt,value
2019-03-30T00:01:51.496Z,88.28
2019-03-30T00:04:18.590Z,88.02
2019-03-30T00:06:45.719Z,87.95
2019-03-30T00:09:13.113Z,88.41
2019-03-30T00:11:40.175Z,88.18
2019-03-30T00:14:07.386Z,87.63
2019-03-30T00:16:34.773Z,88.56
2019-03-30T00:19:01.982Z,89.44
2019-03-30T00:21:29.078Z,89.88
2019-03-30T00:23:56.220Z,90.04
2019-03-30T00:26:23.290Z,90.26
2019-03-30T00:28:50.420Z,91.07
2019-03-30T00:31:18.130Z,90.83
2019-03-30T00:33:45.425Z,90.16
2019-03-30T00:36:13.625Z,89.09
2019-03-30T00:38:40.993Z,88.31
2019-03-30T00:41:09.268Z,87.67
2019-03-30T00:43:37.112Z,87.66
2019-03-30T00:46:06.305Z,87.99
2019-03-30T00:48:37.889Z,88.43
2019-03-30T00:51:07.654Z,87.94
2019-03-30T00:53:39.964Z,88.38
2019-03-30T00:56:09.779Z,88.20
2019-03-30T00:58:39.483Z,88.12
2019-03-30T01:01:10.431Z,87.62
2019-03-30T01:03:41.020Z,87.68
2019-03-30T01:06:08.652Z,88.28
2019-03-30T01:08:35.939Z,88.67
2019-03-30T01:11:03.320Z,89.21
2019-03-30T01:13:33.689Z,89.23
2019-03-30T01:16:00.929Z,89.31
2019-03-30T01:18:28.347Z,89.10
2019-03-30T01:20:58.388Z,88.83
2019-03-30T01:23:27.588Z,88.79
2019-03-30T01:25:58.177Z,87.62
2019-03-30T01:28:27.915Z,87.72
2019-03-30T01:30:57.458Z,88.29
2019-03-30T01:33:28.833Z,88.67
2019-03-30T01:35:59.444Z,88.02
2019-03-30T01:38:29.721Z,88.24
2019-03-30T01:41:01.070Z,87.95
2019-03-30T01:43:29.662Z,88.01
2019-03-30T01:46:00.062Z,88.27
2019-03-30T01:48:30.645Z,88.78
2019-03-30T01:50:58.477Z,89.06
2019-03-30T01:53:29.398Z,89.00
2019-03-30T01:55:59.858Z,89.18
2019-03-30T01:58:32.719Z,89.60
2019-03-30T02:01:00.792Z,89.38
2019-03-30T02:03:28.213Z,89.18
2019-03-30T02:05:55.301Z,88.52
2019-03-30T02:08:22.495Z,88.59
2019-03-30T02:10:49.562Z,88.81
2019-03-30T02:13:16.914Z,89.50
2019-03-30T02:15:44.058Z,89.70
2019-03-30T02:18:11.171Z,89.31
2019-03-30T02:20:40.114Z,89.39
2019-03-30T02:23:07.717Z,89.85
2019-03-30T02:25:36.340Z,89.88
2019-03-30T02:28:06.765Z,89.43
2019-03-30T02:30:38.206Z,89.52
2019-03-30T02:33:09.344Z,89.82
2019-03-30T02:35:36.551Z,89.78
2019-03-30T02:38:06.454Z,89.29
2019-03-30T02:40:33.965Z,89.23
2019-03-30T02:43:01.525Z,88.81
2019-03-30T02:45:28.752Z,88.55
2019-03-30T02:48:00.982Z,88.53
2019-03-30T02:50:28.087Z,88.72
2019-03-30T02:52:57.179Z,88.53
2019-03-30T02:55:27.555Z,88.62
2019-03-30T02:57:54.876Z,88.73
2019-03-30T03:00:22.058Z,88.67
2019-03-30T03:02:49.512Z,87.82
2019-03-30T03:05:17.288Z,87.68
2019-03-30T03:07:46.880Z,87.78
2019-03-30T03:10:17.815Z,88.61
2019-03-30T03:12:46.208Z,89.40
2019-03-30T03:15:16.069Z,89.95
2019-03-30T03:17:48.229Z,90.23
2019-03-30T03:20:18.359Z,90.66
2019-03-30T03:22:47.125Z,90.41
2019-03-30T03:25:16.523Z,89.57
2019-03-30T03:27:46.500Z,89.88
2019-03-30T03:30:14.461Z,90.29
2019-03-30T03:32:41.613Z,90.75
2019-03-30T03:35:11.502Z,90.10
2019-03-30T03:37:45.294Z,89.77
2019-03-30T03:40:08.150Z,89.83
2019-03-30T03:42:35.736Z,89.90
2019-03-30T03:45:05.945Z,89.57
2019-03-30T03:47:41.314Z,89.35
2019-03-30T03:50:17.226Z,89.76
2019-03-30T03:52:46.842Z,89.27
2019-03-30T03:55:16.443Z,89.22
2019-03-30T03:57:46.312Z,89.09
2019-03-30T04:00:14.395Z,88.91
2019-03-30T04:02:41.588Z,89.25
2019-03-30T04:05:11.871Z,89.04
2019-03-30T04:07:42.162Z,88.86
2019-03-30T04:10:09.889Z,90.49
2019-03-30T04:12:37.297Z,91.85
2019-03-30T04:15:08.156Z,91.63
2019-03-30T04:17:36.086Z,92.14
2019-03-30T04:20:04.195Z,91.73
2019-03-30T04:22:33.786Z,91.54
2019-03-30T04:25:00.883Z,92.18
2019-03-30T04:27:28.450Z,93.26
2019-03-30T04:29:55.492Z,91.91
2019-03-30T04:32:22.746Z,90.60
2019-03-30T04:34:50.049Z,90.62
2019-03-30T04:37:17.060Z,90.60
2019-03-30T04:39:44.284Z,91.03
2019-03-30T04:42:11.674Z,90.72
2019-03-30T04:44:38.932Z,90.19
2019-03-30T04:47:06.390Z,89.34
2019-03-30T04:49:33.652Z,89.70
2019-03-30T04:52:00.731Z,89.83
2019-03-30T04:54:27.894Z,89.16
2019-03-30T04:56:55.161Z,88.91
2019-03-30T04:59:22.372Z,88.90
2019-03-30T05:01:49.669Z,88.09
2019-03-30T05:04:17.023Z,87.17
2019-03-30T05:06:44.204Z,85.86
2019-03-30T05:09:11.314Z,84.54
2019-03-30T05:11:38.612Z,85.14
2019-03-30T05:14:08.696Z,85.01
2019-03-30T05:16:38.568Z,84.57
2019-03-30T05:19:05.950Z,85.10
2019-03-30T05:21:34.062Z,84.79
2019-03-30T05:24:01.216Z,84.60
2019-03-30T05:26:28.328Z,84.37
2019-03-30T05:28:55.712Z,84.23
2019-03-30T05:31:22.941Z,84.41
2019-03-30T05:33:50.109Z,84.52
2019-03-30T05:36:17.245Z,84.33
2019-03-30T05:38:44.448Z,84.70
2019-03-30T05:41:11.685Z,84.89
2019-03-30T05:43:41.591Z,85.14
2019-03-30T05:46:08.749Z,85.11
2019-03-30T05:48:36.041Z,84.58
2019-03-30T05:51:03.253Z,83.83
2019-03-30T05:53:30.367Z,83.42
2019-03-30T05:55:59.478Z,81.78
2019-03-30T05:58:26.566Z,80.57
2019-03-30T06:00:54.590Z,80.54
2019-03-30T06:03:21.670Z,80.32
2019-03-30T06:05:48.817Z,79.70
2019-03-30T06:08:16.304Z,79.29
2019-03-30T06:10:43.430Z,79.47
2019-03-30T06:13:10.572Z,79.47
2019-03-30T06:15:37.778Z,79.74
2019-03-30T06:18:05.040Z,80.02
2019-03-30T06:20:33.609Z,80.05
2019-03-30T06:23:00.744Z,79.72
2019-03-30T06:25:27.890Z,79.73
2019-03-30T06:27:59.304Z,79.23
2019-03-30T06:30:28.243Z,78.83
2019-03-30T06:32:57.700Z,78.46
2019-03-30T06:35:24.877Z,78.05
2019-03-30T06:37:52.924Z,77.80
2019-03-30T06:40:20.995Z,76.64
2019-03-30T06:42:48.161Z,75.99
2019-03-30T06:45:15.614Z,75.20
2019-03-30T06:47:42.699Z,74.63
2019-03-30T06:50:11.049Z,73.98
2019-03-30T06:52:45.960Z,72.46
2019-03-30T06:55:10.205Z,72.80
2019-03-30T06:57:37.715Z,73.06
2019-03-30T07:00:05.768Z,71.42
2019-03-30T07:02:33.119Z,70.96
2019-03-30T07:05:01.614Z,68.96
2019-03-30T07:07:28.821Z,68.65
2019-03-30T07:09:58.461Z,67.80
2019-03-30T07:12:26.712Z,65.98
2019-03-30T07:14:55.728Z,66.06
2019-03-30T07:17:23.568Z,65.07
2019-03-30T07:19:53.281Z,63.57
2019-03-30T07:22:20.591Z,63.28
2019-03-30T07:24:49.884Z,62.54
2019-03-30T07:27:17.023Z,62.09
2019-03-30T07:29:44.610Z,61.49
2019-03-30T07:32:15.879Z,61.02
2019-03-30T07:34:43.011Z,60.32
2019-03-30T07:37:10.081Z,60.03
2019-03-30T07:39:37.391Z,59.35
2019-03-30T07:42:04.821Z,58.86
2019-03-30T07:44:32.234Z,59.95
2019-03-30T07:47:01.103Z,59.07
2019-03-30T07:49:28.241Z,59.12
2019-03-30T07:51:55.427Z,58.24
2019-03-30T07:54:24.980Z,56.96
2019-03-30T07:57:05.403Z,55.88
2019-03-30T07:59:27.760Z,55.34
2019-03-30T08:01:54.953Z,51.50
2019-03-30T08:04:22.667Z,46.54
2019-03-30T08:06:50.800Z,43.83
2019-03-30T08:09:18.214Z,45.16
2019-03-30T08:11:52.871Z,45.59
2019-03-30T08:14:20.072Z,42.22
2019-03-30T08:16:51.570Z,42.30
2019-03-30T08:19:21.811Z,42.05
2019-03-30T08:21:49.312Z,42.05
2019-03-30T08:24:18.465Z,42.03
2019-03-30T08:26:48.650Z,40.67
2019-03-30T08:29:15.806Z,40.54
2019-03-30T08:31:42.908Z,40.76
2019-03-30T08:34:10.896Z,39.85
2019-03-30T08:36:38.401Z,40.83
2019-03-30T08:39:08.347Z,40.83
2019-03-30T08:41:38.032Z,39.89
2019-03-30T08:44:05.354Z,41.12
2019-03-30T08:46:32.648Z,40.23
2019-03-30T08:49:05.077Z,39.60
2019-03-30T08:51:32.387Z,39.70
2019-03-30T08:54:00.399Z,39.70
2019-03-30T08:56:28.323Z,39.32
2019-03-30T08:58:55.405Z,39.06
2019-03-30T09:01:22.562Z,39.30
2019-03-30T09:03:49.659Z,40.26
2019-03-30T09:06:16.864Z,38.96
2019-03-30T09:08:44.006Z,39.19
2019-03-30T09:11:11.295Z,39.32
2019-03-30T09:13:38.354Z,39.14
2019-03-30T09:16:05.611Z,39.30
2019-03-30T09:18:32.764Z,38.75
2019-03-30T09:21:05.962Z,40.07
2019-03-30T09:23:33.116Z,38.17
2019-03-30T09:26:00.564Z,37.22
2019-03-30T09:28:27.920Z,38.51
2019-03-30T09:30:55.157Z,37.07
2019-03-30T09:33:22.333Z,37.80
2019-03-30T09:35:49.555Z,37.39
2019-03-30T09:38:27.389Z,35.59
2019-03-30T09:40:54.608Z,35.25
2019-03-30T09:43:21.744Z,34.95
2019-03-30T09:45:49.360Z,36.10
2019-03-30T09:48:16.902Z,36.29
2019-03-30T09:50:43.948Z,34.53
2019-03-30T09:53:11.265Z,34.06
2019-03-30T09:55:38.625Z,34.19
2019-03-30T09:58:05.849Z,35.10
2019-03-30T10:00:33.338Z,35.98
2019-03-30T10:03:00.499Z,35.17
2019-03-30T10:05:28.319Z,34.90
2019-03-30T10:07:55.483Z,34.62
2019-03-30T10:10:22.862Z,35.00
2019-03-30T10:12:51.353Z,36.00
2019-03-30T10:15:18.624Z,33.63
2019-03-30T10:17:55.293Z,33.62
2019-03-30T10:20:22.492Z,34.51
2019-03-30T10:22:49.673Z,32.94
2019-03-30T10:25:20.101Z,35.08
2019-03-30T10:27:47.722Z,34.67
2019-03-30T10:30:15.105Z,35.04
2019-03-30T10:32:42.322Z,34.34
2019-03-30T10:35:09.552Z,33.69
2019-03-30T10:37:37.811Z,34.53
2019-03-30T10:40:05.621Z,34.34
2019-03-30T10:42:32.761Z,34.75
2019-03-30T10:45:00.339Z,35.04
2019-03-30T10:47:29.971Z,34.38
2019-03-30T10:49:57.560Z,33.31
2019-03-30T10:52:24.660Z,33.45
2019-03-30T10:54:53.172Z,32.40
2019-03-30T10:57:20.712Z,32.26
2019-03-30T10:59:48.146Z,32.71
2019-03-30T11:02:15.409Z,33.14
2019-03-30T11:04:42.506Z,32.88
2019-03-30T11:07:09.856Z,32.27
2019-03-30T11:09:37.015Z,31.40
2019-03-30T11:12:04.391Z,31.60
2019-03-30T11:14:38.206Z,31.67
2019-03-30T11:17:05.657Z,31.33
2019-03-30T11:19:33.910Z,31.38
2019-03-30T11:22:03.246Z,31.72
2019-03-30T11:24:30.430Z,31.67
2019-03-30T11:26:57.523Z,31.10
2019-03-30T11:29:24.839Z,31.85
2019-03-30T11:31:56.167Z,31.94
2019-03-30T11:34:23.539Z,31.25
2019-03-30T11:36:53.386Z,30.61
2019-03-30T11:39:22.281Z,30.74
2019-03-30T11:41:50.534Z,30.96
2019-03-30T11:44:21.411Z,31.49
2019-03-30T11:46:48.981Z,30.62
2019-03-30T11:49:16.341Z,31.02
2019-03-30T11:51:43.600Z,31.64
2019-03-30T11:54:21.322Z,31.33
2019-03-30T11:56:49.482Z,30.53
2019-03-30T11:59:16.715Z,30.80
2019-03-30T12:01:44.160Z,31.67
2019-03-30T12:04:13.829Z,30.06
2019-03-30T12:06:41.145Z,30.66
2019-03-30T12:09:22.886Z,30.15
2019-03-30T12:11:50.121Z,30.77
2019-03-30T12:14:17.287Z,30.80
2019-03-30T12:16:44.598Z,31.39
2019-03-30T12:19:11.838Z,31.26
2019-03-30T12:21:38.951Z,30.95
2019-03-30T12:24:07.359Z,31.50
2019-03-30T12:26:34.530Z,32.11
2019-03-30T12:29:02.992Z,30.75
2019-03-30T12:31:30.414Z,30.53
2019-03-30T12:33:58.627Z,30.83
2019-03-30T12:36:25.873Z,30.50
2019-03-30T12:38:53.200Z,30.28
2019-03-30T12:41:20.975Z,30.55
2019-03-30T12:43:49.479Z,30.13
2019-03-30T12:46:19.919Z,31.12
2019-03-30T12:48:47.873Z,30.14
2019-03-30T12:51:15.532Z,30.30
2019-03-30T12:53:50.494Z,31.56
2019-03-30T12:56:15.939Z,30.96
2019-03-30T12:58:43.100Z,30.90
2019-03-30T13:01:15.732Z,30.19
2019-03-30T13:03:43.049Z,29.40
2019-03-30T13:06:12.197Z,30.36
2019-03-30T13:08:39.566Z,28.20
2019-03-30T13:11:07.642Z,28.53
2019-03-30T13:13:36.328Z,27.79
2019-03-30T13:16:04.601Z,27.56
2019-03-30T13:18:32.167Z,27.44
2019-03-30T13:21:00.477Z,28.36
2019-03-30T13:23:27.930Z,28.25
2019-03-30T13:26:04.062Z,27.84
2019-03-30T13:28:30.461Z,27.85
2019-03-30T13:30:59.431Z,27.75
2019-03-30T13:33:26.787Z,27.60
2019-03-30T13:35:54.106Z,27.35
2019-03-30T13:38:21.670Z,27.41
2019-03-30T13:40:50.988Z,27.79
2019-03-30T13:43:18.261Z,27.94
2019-03-30T13:45:45.433Z,28.11
2019-03-30T13:48:12.814Z,28.49
2019-03-30T13:50:39.907Z,28.78
2019-03-30T13:53:09.677Z,29.11
2019-03-30T13:55:36.849Z,29.86
2019-03-30T13:58:04.148Z,30.15
2019-03-30T14:00:31.249Z,29.52
2019-03-30T14:02:59.096Z,30.71
2019-03-30T14:05:26.876Z,29.67
2019-03-30T14:07:54.260Z,29.63
2019-03-30T14:10:23.003Z,29.49
2019-03-30T14:12:52.229Z,30.38
2019-03-30T14:15:19.396Z,30.25
2019-03-30T14:17:49.036Z,29.81
2019-03-30T14:20:16.104Z,30.09
2019-03-30T14:22:43.642Z,31.18
2019-03-30T14:25:11.015Z,30.68
2019-03-30T14:27:38.699Z,31.93
2019-03-30T14:30:07.107Z,32.18
2019-03-30T14:32:34.631Z,31.00
2019-03-30T14:35:04.179Z,30.24
2019-03-30T14:37:31.283Z,30.41
2019-03-30T14:39:59.677Z,30.46
2019-03-30T14:42:26.918Z,30.11
2019-03-30T14:44:54.506Z,30.84
2019-03-30T14:47:21.749Z,31.27
2019-03-30T14:49:48.914Z,31.57
2019-03-30T14:52:18.311Z,31.51
2019-03-30T14:54:52.709Z,32.06
2019-03-30T14:57:14.560Z,32.57
2019-03-30T14:59:42.855Z,31.78
2019-03-30T15:02:10.067Z,31.98
2019-03-30T15:04:37.598Z,32.33
2019-03-30T15:07:05.912Z,31.77
2019-03-30T15:09:33.023Z,33.00
2019-03-30T15:12:01.188Z,32.84
2019-03-30T15:14:28.298Z,32.96
2019-03-30T15:16:57.821Z,33.27
2019-03-30T15:19:24.968Z,33.03
2019-03-30T15:21:52.212Z,33.44
2019-03-30T15:24:28.330Z,34.45
2019-03-30T15:27:00.151Z,31.75
2019-03-30T15:29:26.180Z,31.80
2019-03-30T15:31:53.989Z,32.21
2019-03-30T15:34:28.849Z,32.27
2019-03-30T15:36:56.072Z,32.48
2019-03-30T15:39:23.636Z,32.69
2019-03-30T15:41:51.926Z,33.56
2019-03-30T15:44:19.057Z,33.87
2019-03-30T15:47:16.520Z,34.02
2019-03-30T15:49:43.903Z,34.10
2019-03-30T15:52:14.574Z,34.10
2019-03-30T15:54:41.792Z,34.69
2019-03-30T15:57:14.180Z,35.63
2019-03-30T15:59:38.278Z,35.75
2019-03-30T16:02:09.150Z,34.83
2019-03-30T16:04:38.005Z,35.39
2019-03-30T16:07:07.786Z,35.27
2019-03-30T16:09:36.145Z,34.88
2019-03-30T16:12:03.393Z,34.26
2019-03-30T16:14:31.091Z,34.95
2019-03-30T16:16:58.315Z,35.08
2019-03-30T16:19:27.010Z,35.29
2019-03-30T16:21:54.159Z,35.56
2019-03-30T16:24:21.336Z,35.57
2019-03-30T16:26:50.188Z,36.34
2019-03-30T16:29:18.712Z,36.34
2019-03-30T16:31:46.261Z,35.84
2019-03-30T16:34:13.434Z,35.89
2019-03-30T16:36:41.359Z,37.09
2019-03-30T16:39:08.986Z,37.09
2019-03-30T16:41:37.010Z,36.67
2019-03-30T16:44:04.132Z,37.43
2019-03-30T16:46:31.281Z,38.57
2019-03-30T16:48:58.375Z,39.08
2019-03-30T16:51:25.545Z,39.11
2019-03-30T16:53:52.986Z,38.79
2019-03-30T16:56:20.221Z,38.79
2019-03-30T16:58:48.647Z,38.98
2019-03-30T17:01:15.765Z,39.65
2019-03-30T17:03:42.926Z,39.65
2019-03-30T17:06:10.138Z,40.37
2019-03-30T17:08:37.259Z,40.37
2019-03-30T17:11:06.971Z,40.15
2019-03-30T17:13:34.171Z,40.03
2019-03-30T17:16:01.340Z,40.41
2019-03-30T17:18:28.505Z,40.80
2019-03-30T17:20:55.687Z,41.27
2019-03-30T17:23:22.825Z,41.96
2019-03-30T17:25:49.923Z,41.72
2019-03-30T17:28:17.321Z,42.82
2019-03-30T17:30:44.368Z,42.46
2019-03-30T17:33:12.120Z,43.19
2019-03-30T17:35:39.190Z,43.91
2019-03-30T17:38:06.480Z,44.46
2019-03-30T17:40:39.575Z,45.06
2019-03-30T17:43:06.710Z,45.87
2019-03-30T17:45:34.029Z,46.19
2019-03-30T17:48:03.991Z,47.11
2019-03-30T17:50:31.228Z,48.00
2019-03-30T17:52:58.587Z,48.45
2019-03-30T17:55:33.486Z,49.40
2019-03-30T17:57:55.028Z,50.67
2019-03-30T18:00:22.648Z,51.46
2019-03-30T18:02:49.902Z,52.20
2019-03-30T18:05:16.984Z,52.89
2019-03-30T18:07:44.394Z,53.23
2019-03-30T18:10:12.502Z,53.00
2019-03-30T18:12:39.642Z,53.04
2019-03-30T18:15:14.232Z,53.79
2019-03-30T18:17:42.785Z,54.43
2019-03-30T18:20:10.236Z,54.75
2019-03-30T18:22:39.313Z,55.23
2019-03-30T18:25:07.122Z,55.21
2019-03-30T18:27:34.781Z,55.73
2019-03-30T18:30:02.264Z,56.16
2019-03-30T18:32:29.859Z,56.32
2019-03-30T18:34:57.300Z,56.33
2019-03-30T18:37:24.701Z,56.43
2019-03-30T18:39:51.958Z,56.07
2019-03-30T18:42:25.682Z,56.37
2019-03-30T18:44:54.210Z,56.95
2019-03-30T18:47:21.357Z,57.22
2019-03-30T18:49:48.709Z,57.18
2019-03-30T18:52:16.462Z,57.22
2019-03-30T18:54:43.776Z,57.60
2019-03-30T18:57:11.057Z,58.31
2019-03-30T18:59:38.552Z,58.61
2019-03-30T19:02:05.619Z,58.45
2019-03-30T19:04:33.775Z,58.96
2019-03-30T19:07:01.363Z,58.79
2019-03-30T19:09:29.457Z,59.42
2019-03-30T19:11:57.396Z,59.58
2019-03-30T19:14:24.537Z,59.90
2019-03-30T19:16:54.273Z,60.19
2019-03-30T19:19:21.285Z,60.20
2019-03-30T19:21:51.206Z,60.42
2019-03-30T19:24:19.011Z,60.52
2019-03-30T19:26:46.975Z,60.57
2019-03-30T19:29:14.206Z,60.85
2019-03-30T19:31:41.486Z,60.74
2019-03-30T19:34:08.673Z,60.46
2019-03-30T19:36:36.729Z,60.21
2019-03-30T19:39:07.058Z,60.41
2019-03-30T19:41:35.168Z,59.98
2019-03-30T19:44:02.500Z,59.99
2019-03-30T19:46:29.796Z,60.04
2019-03-30T19:48:57.633Z,59.83
2019-03-30T19:51:24.980Z,60.00
2019-03-30T19:53:53.427Z,59.82
2019-03-30T19:56:20.978Z,59.79
2019-03-30T19:58:48.021Z,59.61
2019-03-30T20:01:15.424Z,59.75
2019-03-30T20:03:42.665Z,59.58
2019-03-30T20:06:09.979Z,59.97
2019-03-30T20:08:37.362Z,60.13
2019-03-30T20:11:05.080Z,59.33
2019-03-30T20:13:32.208Z,59.19
2019-03-30T20:15:59.254Z,58.84
2019-03-30T20:18:26.391Z,59.05
2019-03-30T20:20:53.526Z,59.01
2019-03-30T20:23:20.650Z,59.08
2019-03-30T20:25:47.994Z,59.48
2019-03-30T20:28:15.068Z,59.09
2019-03-30T20:30:42.426Z,58.83
2019-03-30T20:33:09.535Z,58.59
2019-03-30T20:35:36.862Z,58.19
2019-03-30T20:38:04.063Z,57.85
2019-03-30T20:40:31.114Z,57.92
2019-03-30T20:42:58.214Z,57.73
2019-03-30T20:45:26.455Z,58.13
2019-03-30T20:47:57.220Z,58.11
2019-03-30T20:50:24.693Z,58.28
2019-03-30T20:52:53.006Z,58.31
2019-03-30T20:55:20.333Z,58.23
2019-03-30T20:57:47.823Z,57.60
2019-03-30T21:00:15.821Z,57.20
2019-03-30T21:02:42.934Z,56.15
2019-03-30T21:05:10.515Z,55.43
2019-03-30T21:07:37.541Z,55.48
2019-03-30T21:10:06.861Z,55.68
2019-03-30T21:12:34.413Z,55.31
2019-03-30T21:15:01.576Z,55.23
2019-03-30T21:17:33.326Z,55.35
2019-03-30T21:20:02.427Z,55.12
2019-03-30T21:22:34.781Z,54.99
2019-03-30T21:25:10.047Z,55.28
2019-03-30T21:27:37.079Z,52.58
2019-03-30T21:30:06.607Z,51.99
2019-03-30T21:32:34.027Z,52.79
2019-03-30T21:35:01.243Z,52.62
2019-03-30T21:37:28.361Z,52.73
2019-03-30T21:39:55.441Z,53.46
2019-03-30T21:42:30.554Z,54.44
2019-03-30T21:44:57.746Z,55.28
2019-03-30T21:47:24.791Z,55.65
2019-03-30T21:49:51.997Z,56.20
2019-03-30T21:52:22.258Z,56.71
2019-03-30T21:54:51.791Z,56.99
2019-03-30T21:57:21.051Z,56.94
2019-03-30T21:59:48.089Z,56.22
2019-03-30T22:02:15.892Z,55.86
2019-03-30T22:04:43.361Z,55.75
2019-03-30T22:07:31.199Z,55.90
2019-03-30T22:09:59.569Z,55.98
2019-03-30T22:12:28.126Z,56.48
2019-03-30T22:14:55.207Z,56.90
2019-03-30T22:17:23.420Z,57.47
2019-03-30T22:19:58.866Z,57.43
2019-03-30T22:22:26.116Z,57.41
2019-03-30T22:25:03.170Z,57.90
2019-03-30T22:27:37.096Z,58.60
2019-03-30T22:30:05.012Z,58.79
2019-03-30T22:32:32.187Z,59.14
2019-03-30T22:34:59.231Z,59.24
2019-03-30T22:37:26.280Z,59.62
2019-03-30T22:39:53.786Z,59.98
2019-03-30T22:42:21.118Z,60.39
2019-03-30T22:44:48.561Z,60.45
2019-03-30T22:47:15.626Z,60.24
2019-03-30T22:49:42.685Z,59.82
2019-03-30T22:52:09.762Z,59.64
2019-03-30T22:54:36.903Z,60.32
2019-03-30T22:57:03.945Z,60.72
2019-03-30T22:59:31.104Z,61.05
2019-03-30T23:01:58.315Z,60.97
2019-03-30T23:04:25.325Z,61.02
2019-03-30T23:06:54.468Z,61.50
2019-03-30T23:09:21.618Z,61.63
2019-03-30T23:11:48.682Z,62.07
2019-03-30T23:14:15.734Z,62.38
2019-03-30T23:16:43.035Z,62.47
2019-03-30T23:19:10.141Z,62.41
2019-03-30T23:21:37.201Z,62.11
2019-03-30T23:24:07.040Z,62.04
2019-03-30T23:26:34.385Z,62.35
2019-03-30T23:29:01.868Z,62.72
2019-03-30T23:31:28.974Z,62.91
2019-03-30T23:33:56.297Z,63.21
2019-03-30T23:36:23.416Z,63.34
2019-03-30T23:38:53.525Z,63.35
2019-03-30T23:41:20.731Z,62.98
2019-03-30T23:43:47.805Z,63.04
2019-03-30T23:46:15.157Z,63.04
2019-03-30T23:48:42.275Z,63.02
2019-03-30T23:51:09.287Z,62.87
2019-03-30T23:53:36.320Z,63.05
2019-03-30T23:56:15.816Z,63.91
2019-03-30T23:58:42.873Z,64.72
